Terminal Aerodrome Forecast
Issued by NWS Dodge City, KS

Home | Current Version | Previous Version | Graphics & Text | Print | Product List | Glossary Off
Versions: 1 2 3 4 5 6 7 8 9 10 11 12 13 14 15 16 17 18 19 20 21 22 23 24 25 26 27 28 29 30 31 32 33

000
FTUS43 KDDC 201132
TAFDDC
TAF
KDDC 201132Z 2012/2112 20010KT P6SM SKC
     FM202200 04007KT P6SM VCTS SCT050CB
     FM210100 04006KT P6SM FEW080
     FM210500 36008KT P6SM VCTS BKN060CB
     FM210900 01010KT P6SM OVC020=

USA.gov is the U.S. government's official web portal to all federal, state and local government web resources and services.